Terminal Aerodrome Forecast
Issued by NWS Binghamton, NY

Home | Current Version | Previous Version | Text Only | Print | Product List | Glossary On
Versions: 1 2 3 4 5 6 7 8 9 10 11 12 13 14 15 16 17 18 19 20 21 22 23 24 25
000
FTUS41 KBGM 292339
TAFAVP
TAF
KAVP 292339Z 3000/3024 VRB05KT P6SM -RA BKN025 OVC035
      TEMPO 3002/3006 2SM -RA BR
     FM300800 VRB05KT P6SM OVC025
     FM301400 VRB03KT P6SM BKN040
     FM302000 VRB06KT P6SM BKN250=

USA.gov is the U.S. government's official web portal to all federal, state and local government web resources and services.